TimeMST,TemperatureF,Dew PointF,Humidity,Sea Level PressureIn,VisibilityMPH,Wind Direction,Wind SpeedMPH,Gust SpeedMPH,PrecipitationIn,Events,Conditions,WindDirDegrees,DateUTC
12:15 AM,80.6,44.6,28,29.75,10.0,Calm,Calm,-,N/A,,Clear,0,2013-09-19 07:15:00
12:35 AM,78.8,46.4,32,29.75,10.0,Calm,Calm,-,N/A,,Clear,0,2013-09-19 07:35:00
12:55 AM,78.8,44.6,30,29.75,10.0,Calm,Calm,-,N/A,,Clear,0,2013-09-19 07:55:00
1:15 AM,75.2,44.6,34,29.75,10.0,NE,3.5,-,N/A,,Clear,50,2013-09-19 08:15:00
1:35 AM,75.2,44.6,34,29.75,10.0,NE,4.6,-,N/A,,Clear,40,2013-09-19 08:35:00
1:55 AM,73.4,46.4,38,29.75,10.0,North,4.6,-,N/A,,Clear,10,2013-09-19 08:55:00
2:15 AM,75.2,46.4,36,29.75,10.0,Calm,Calm,-,N/A,,Clear,0,2013-09-19 09:15:00
2:35 AM,73.4,46.4,38,29.74,10.0,Calm,Calm,-,N/A,,Clear,0,2013-09-19 09:35:00
2:55 AM,73.4,46.4,38,29.74,10.0,Calm,Calm,-,N/A,,Clear,0,2013-09-19 09:55:00
3:15 AM,73.4,48.2,41,29.74,10.0,Calm,Calm,-,N/A,,Clear,0,2013-09-19 10:15:00
3:35 AM,71.6,48.2,43,29.74,10.0,Calm,Calm,-,N/A,,Clear,0,2013-09-19 10:35:00
3:55 AM,69.8,48.2,46,29.75,10.0,Calm,Calm,-,N/A,,Clear,0,2013-09-19 10:55:00
4:15 AM,71.6,48.2,43,29.75,10.0,Calm,Calm,-,N/A,,Clear,0,2013-09-19 11:15:00
4:35 AM,69.8,48.2,46,29.75,10.0,Calm,Calm,-,N/A,,Clear,0,2013-09-19 11:35:00
4:55 AM,71.6,48.2,43,29.76,10.0,Calm,Calm,-,N/A,,Clear,0,2013-09-19 11:55:00
5:15 AM,69.8,48.2,46,29.76,10.0,NE,5.8,-,N/A,,Clear,40,2013-09-19 12:15:00
5:35 AM,69.8,48.2,46,29.76,10.0,NE,4.6,-,N/A,,Clear,40,2013-09-19 12:35:00
5:55 AM,69.8,46.4,43,29.77,10.0,NE,3.5,-,N/A,,Clear,40,2013-09-19 12:55:00
6:15 AM,68.0,46.4,46,29.78,10.0,NNE,3.5,-,N/A,,Clear,30,2013-09-19 13:15:00
6:35 AM,68.0,46.4,46,29.78,10.0,ENE,3.5,-,N/A,,Clear,60,2013-09-19 13:35:00
6:55 AM,69.8,46.4,43,29.78,10.0,NE,4.6,-,N/A,,Clear,50,2013-09-19 13:55:00
7:15 AM,73.4,44.6,36,29.79,10.0,East,3.5,-,N/A,,Clear,80,2013-09-19 14:15:00
7:35 AM,75.2,42.8,31,29.80,10.0,East,3.5,-,N/A,,Clear,100,2013-09-19 14:35:00
7:55 AM,78.8,42.8,28,29.80,10.0,East,3.5,-,N/A,,Clear,100,2013-09-19 14:55:00
8:15 AM,78.8,42.8,28,29.81,10.0,ESE,3.5,-,N/A,,Clear,120,2013-09-19 15:15:00
8:35 AM,80.6,42.8,26,29.81,10.0,Calm,Calm,-,N/A,,Clear,0,2013-09-19 15:35:00
8:55 AM,82.4,44.6,26,29.81,10.0,Calm,Calm,-,N/A,,Clear,0,2013-09-19 15:55:00
9:15 AM,84.2,44.6,25,29.81,10.0,Calm,Calm,-,N/A,,Clear,0,2013-09-19 16:15:00
9:35 AM,86.0,44.6,23,29.81,10.0,SSE,5.8,-,N/A,,Clear,150,2013-09-19 16:35:00
9:55 AM,87.8,44.6,22,29.81,10.0,ESE,4.6,-,N/A,,Clear,120,2013-09-19 16:55:00
10:15 AM,89.6,42.8,20,29.81,10.0,Calm,Calm,-,N/A,,Clear,0,2013-09-19 17:15:00
10:35 AM,91.4,41.0,17,29.81,10.0,Calm,Calm,-,N/A,,Clear,0,2013-09-19 17:35:00
10:55 AM,91.4,39.2,16,29.80,10.0,SSE,3.5,-,N/A,,Clear,150,2013-09-19 17:55:00
11:15 AM,91.4,37.4,15,29.80,10.0,East,5.8,-,N/A,,Clear,90,2013-09-19 18:15:00
11:35 AM,93.2,39.2,15,29.79,10.0,SE,3.5,-,N/A,,Clear,140,2013-09-19 18:35:00
11:55 AM,93.2,37.4,14,29.79,10.0,Calm,Calm,-,N/A,,Clear,0,2013-09-19 18:55:00
12:15 PM,96.8,35.6,12,29.78,10.0,ESE,3.5,-,N/A,,Clear,120,2013-09-19 19:15:00
12:35 PM,95.0,37.4,13,29.78,10.0,SSW,5.8,-,N/A,,Clear,200,2013-09-19 19:35:00
12:55 PM,96.8,37.4,13,29.77,10.0,Calm,Calm,-,N/A,,Clear,0,2013-09-19 19:55:00
1:15 PM,96.8,37.4,13,29.76,10.0,West,6.9,-,N/A,,Clear,260,2013-09-19 20:15:00
1:35 PM,96.8,39.2,14,29.75,10.0,Calm,Calm,-,N/A,,Clear,0,2013-09-19 20:35:00
1:55 PM,98.6,39.2,13,29.74,10.0,SSW,9.2,-,N/A,,Clear,200,2013-09-19 20:55:00
2:15 PM,98.6,39.2,13,29.74,10.0,SSE,4.6,-,N/A,,Clear,150,2013-09-19 21:15:00
2:35 PM,98.6,39.2,13,29.74,10.0,SW,8.1,-,N/A,,Clear,220,2013-09-19 21:35:00
2:55 PM,98.6,39.2,13,29.73,10.0,SSE,4.6,-,N/A,,Clear,160,2013-09-19 21:55:00
3:15 PM,98.6,39.2,13,29.72,10.0,SSW,6.9,-,N/A,,Clear,210,2013-09-19 22:15:00
3:35 PM,98.6,39.2,13,29.72,10.0,Calm,Calm,-,N/A,,Clear,0,2013-09-19 22:35:00
3:55 PM,98.6,37.4,12,29.71,10.0,Calm,Calm,-,N/A,,Clear,0,2013-09-19 22:55:00
4:15 PM,98.6,37.4,12,29.71,10.0,Calm,Calm,-,N/A,,Clear,0,2013-09-19 23:15:00
4:35 PM,98.6,37.4,12,29.70,10.0,South,6.9,-,N/A,,Clear,190,2013-09-19 23:35:00
4:55 PM,98.6,37.4,12,29.70,10.0,SW,6.9,-,N/A,,Clear,220,2013-09-19 23:55:00
5:15 PM,98.6,37.4,12,29.70,10.0,Calm,Calm,-,N/A,,Clear,0,2013-09-20 00:15:00
5:35 PM,98.6,37.4,12,29.70,10.0,NNW,4.6,-,N/A,,Clear,330,2013-09-20 00:35:00
5:55 PM,96.8,37.4,13,29.71,10.0,NW,5.8,-,N/A,,Clear,320,2013-09-20 00:55:00
6:15 PM,96.8,35.6,12,29.71,10.0,NW,8.1,-,N/A,,Clear,320,2013-09-20 01:15:00
6:35 PM,93.2,35.6,13,29.71,10.0,NW,5.8,-,N/A,,Clear,310,2013-09-20 01:35:00
6:55 PM,91.4,37.4,15,29.72,10.0,West,5.8,-,N/A,,Clear,280,2013-09-20 01:55:00
7:15 PM,89.6,37.4,16,29.72,10.0,WNW,6.9,-,N/A,,Clear,290,2013-09-20 02:15:00
7:35 PM,89.6,39.2,17,29.73,10.0,WNW,6.9,-,N/A,,Clear,300,2013-09-20 02:35:00
7:55 PM,89.6,37.4,16,29.74,10.0,West,6.9,-,N/A,,Clear,270,2013-09-20 02:55:00
8:15 PM,87.8,37.4,17,29.74,10.0,West,8.1,-,N/A,,Clear,280,2013-09-20 03:15:00
8:35 PM,87.8,37.4,17,29.75,10.0,WNW,9.2,-,N/A,,Clear,290,2013-09-20 03:35:00
8:55 PM,87.8,33.8,15,29.75,10.0,WNW,8.1,-,N/A,,Clear,290,2013-09-20 03:55:00
9:15 PM,86.0,33.8,15,29.75,10.0,WNW,6.9,-,N/A,,Clear,290,2013-09-20 04:15:00
9:35 PM,86.0,30.2,13,29.76,10.0,WNW,5.8,-,N/A,,Clear,300,2013-09-20 04:35:00
9:55 PM,84.2,28.4,13,29.76,10.0,Calm,Calm,-,N/A,,Clear,0,2013-09-20 04:55:00
10:15 PM,80.6,35.6,20,29.76,10.0,North,3.5,-,N/A,,Clear,360,2013-09-20 05:15:00
10:35 PM,80.6,35.6,20,29.76,10.0,Calm,Calm,-,N/A,,Clear,0,2013-09-20 05:35:00
10:55 PM,78.8,35.6,21,29.76,10.0,NNE,4.6,-,N/A,,Clear,20,2013-09-20 05:55:00
11:15 PM,80.6,33.8,18,29.76,10.0,NNW,3.5,-,N/A,,Clear,340,2013-09-20 06:15:00
11:35 PM,78.8,37.4,23,29.77,10.0,Calm,Calm,-,N/A,,Clear,0,2013-09-20 06:35:00
11:55 PM,78.8,35.6,21,29.77,10.0,ENE,3.5,-,N/A,,Clear,70,2013-09-20 06:55:00